sensor_id;sensor_type;location;lat;lon;timestamp;P1;durP1;ratioP1;P2;durP2;ratioP2
79027;SDS011;68427;48.476;19.102;2023-06-10T00:01:59;7.85;;;3.58;;
79027;SDS011;68427;48.476;19.102;2023-06-10T00:04:25;6.18;;;3.38;;
79027;SDS011;68427;48.476;19.102;2023-06-10T00:06:52;9.13;;;3.90;;
79027;SDS011;68427;48.476;19.102;2023-06-10T00:09:19;12.13;;;3.28;;
79027;SDS011;68427;48.476;19.102;2023-06-10T00:11:46;8.73;;;3.92;;
79027;SDS011;68427;48.476;19.102;2023-06-10T00:14:12;9.63;;;3.65;;
79027;SDS011;68427;48.476;19.102;2023-06-10T00:16:38;5.50;;;2.38;;
79027;SDS011;68427;48.476;19.102;2023-06-10T00:19:05;9.45;;;3.33;;
79027;SDS011;68427;48.476;19.102;2023-06-10T00:24:06;6.88;;;3.10;;
79027;SDS011;68427;48.476;19.102;2023-06-10T00:26:37;6.28;;;2.72;;
79027;SDS011;68427;48.476;19.102;2023-06-10T00:29:02;9.77;;;3.30;;
79027;SDS011;68427;48.476;19.102;2023-06-10T00:31:28;7.70;;;4.53;;
79027;SDS011;68427;48.476;19.102;2023-06-10T00:33:55;7.60;;;3.22;;
79027;SDS011;68427;48.476;19.102;2023-06-10T00:36:22;9.80;;;4.40;;
79027;SDS011;68427;48.476;19.102;2023-06-10T00:38:48;8.73;;;3.85;;
79027;SDS011;68427;48.476;19.102;2023-06-10T00:41:13;8.82;;;3.65;;
79027;SDS011;68427;48.476;19.102;2023-06-10T00:43:39;10.90;;;4.47;;
79027;SDS011;68427;48.476;19.102;2023-06-10T00:46:05;11.63;;;4.10;;
79027;SDS011;68427;48.476;19.102;2023-06-10T00:48:31;8.07;;;3.95;;
79027;SDS011;68427;48.476;19.102;2023-06-10T00:50:57;13.75;;;4.20;;
79027;SDS011;68427;48.476;19.102;2023-06-10T00:53:26;11.90;;;4.85;;
79027;SDS011;68427;48.476;19.102;2023-06-10T00:55:53;12.48;;;5.10;;
79027;SDS011;68427;48.476;19.102;2023-06-10T00:58:19;11.25;;;3.92;;
79027;SDS011;68427;48.476;19.102;2023-06-10T01:00:45;11.30;;;3.95;;
79027;SDS011;68427;48.476;19.102;2023-06-10T01:03:11;9.98;;;5.13;;
79027;SDS011;68427;48.476;19.102;2023-06-10T01:05:37;13.55;;;4.95;;
79027;SDS011;68427;48.476;19.102;2023-06-10T01:08:10;12.60;;;4.03;;
79027;SDS011;68427;48.476;19.102;2023-06-10T01:10:47;10.30;;;4.32;;
79027;SDS011;68427;48.476;19.102;2023-06-10T01:13:16;14.35;;;4.80;;
79027;SDS011;68427;48.476;19.102;2023-06-10T01:15:43;13.57;;;4.97;;
79027;SDS011;68427;48.476;19.102;2023-06-10T01:18:09;14.10;;;6.15;;
79027;SDS011;68427;48.476;19.102;2023-06-10T01:20:40;11.82;;;4.78;;
79027;SDS011;68427;48.476;19.102;2023-06-10T01:23:09;13.00;;;5.47;;
79027;SDS011;68427;48.476;19.102;2023-06-10T01:25:36;13.88;;;5.22;;
79027;SDS011;68427;48.476;19.102;2023-06-10T01:28:04;13.38;;;6.25;;
79027;SDS011;68427;48.476;19.102;2023-06-10T01:30:37;14.35;;;6.00;;
79027;SDS011;68427;48.476;19.102;2023-06-10T01:33:10;14.60;;;5.55;;
79027;SDS011;68427;48.476;19.102;2023-06-10T01:35:40;15.55;;;6.03;;
79027;SDS011;68427;48.476;19.102;2023-06-10T01:38:09;12.57;;;5.50;;
79027;SDS011;68427;48.476;19.102;2023-06-10T01:40:37;13.45;;;5.55;;
79027;SDS011;68427;48.476;19.102;2023-06-10T01:43:04;14.10;;;5.47;;
79027;SDS011;68427;48.476;19.102;2023-06-10T01:45:30;13.70;;;5.53;;
79027;SDS011;68427;48.476;19.102;2023-06-10T01:47:55;9.90;;;3.70;;
79027;SDS011;68427;48.476;19.102;2023-06-10T01:50:21;9.95;;;4.03;;
79027;SDS011;68427;48.476;19.102;2023-06-10T01:52:47;9.38;;;5.18;;
79027;SDS011;68427;48.476;19.102;2023-06-10T01:55:14;7.38;;;4.07;;
79027;SDS011;68427;48.476;19.102;2023-06-10T01:57:40;9.70;;;3.85;;
79027;SDS011;68427;48.476;19.102;2023-06-10T02:00:06;8.23;;;4.00;;
79027;SDS011;68427;48.476;19.102;2023-06-10T02:02:33;10.68;;;4.38;;
79027;SDS011;68427;48.476;19.102;2023-06-10T02:04:59;11.75;;;4.88;;
79027;SDS011;68427;48.476;19.102;2023-06-10T02:07:25;10.95;;;4.78;;
79027;SDS011;68427;48.476;19.102;2023-06-10T02:09:51;11.43;;;4.70;;
79027;SDS011;68427;48.476;19.102;2023-06-10T02:12:18;9.68;;;3.95;;
79027;SDS011;68427;48.476;19.102;2023-06-10T02:14:43;9.80;;;4.47;;
79027;SDS011;68427;48.476;19.102;2023-06-10T02:17:09;10.07;;;4.20;;
79027;SDS011;68427;48.476;19.102;2023-06-10T02:19:37;10.77;;;3.90;;
79027;SDS011;68427;48.476;19.102;2023-06-10T02:22:07;9.30;;;4.05;;
79027;SDS011;68427;48.476;19.102;2023-06-10T02:24:33;10.70;;;5.03;;
79027;SDS011;68427;48.476;19.102;2023-06-10T02:26:58;10.65;;;4.72;;
79027;SDS011;68427;48.476;19.102;2023-06-10T02:29:26;11.93;;;4.03;;
79027;SDS011;68427;48.476;19.102;2023-06-10T02:31:52;7.82;;;3.25;;
79027;SDS011;68427;48.476;19.102;2023-06-10T02:34:18;9.15;;;3.80;;
79027;SDS011;68427;48.476;19.102;2023-06-10T02:36:44;10.25;;;4.28;;
79027;SDS011;68427;48.476;19.102;2023-06-10T02:39:09;7.20;;;3.70;;
79027;SDS011;68427;48.476;19.102;2023-06-10T02:41:35;8.07;;;4.40;;
79027;SDS011;68427;48.476;19.102;2023-06-10T02:44:01;8.13;;;4.35;;
79027;SDS011;68427;48.476;19.102;2023-06-10T02:46:28;9.57;;;5.10;;
79027;SDS011;68427;48.476;19.102;2023-06-10T02:48:53;8.85;;;3.83;;
79027;SDS011;68427;48.476;19.102;2023-06-10T02:51:19;7.60;;;4.90;;
79027;SDS011;68427;48.476;19.102;2023-06-10T02:53:46;7.40;;;2.95;;
79027;SDS011;68427;48.476;19.102;2023-06-10T02:56:11;6.05;;;3.03;;
79027;SDS011;68427;48.476;19.102;2023-06-10T02:58:37;6.93;;;3.85;;
79027;SDS011;68427;48.476;19.102;2023-06-10T03:01:03;6.78;;;3.30;;
79027;SDS011;68427;48.476;19.102;2023-06-10T03:03:30;6.53;;;3.15;;
79027;SDS011;68427;48.476;19.102;2023-06-10T03:05:58;5.68;;;2.58;;
79027;SDS011;68427;48.476;19.102;2023-06-10T03:08:24;5.38;;;2.53;;
79027;SDS011;68427;48.476;19.102;2023-06-10T03:10:50;5.72;;;2.72;;
79027;SDS011;68427;48.476;19.102;2023-06-10T03:13:16;7.63;;;4.13;;
79027;SDS011;68427;48.476;19.102;2023-06-10T03:15:41;5.72;;;2.60;;
79027;SDS011;68427;48.476;19.102;2023-06-10T03:18:07;6.38;;;2.97;;
79027;SDS011;68427;48.476;19.102;2023-06-10T03:20:34;5.72;;;2.78;;
79027;SDS011;68427;48.476;19.102;2023-06-10T03:23:04;4.43;;;2.40;;
79027;SDS011;68427;48.476;19.102;2023-06-10T03:25:33;7.10;;;2.17;;
79027;SDS011;68427;48.476;19.102;2023-06-10T03:27:59;7.18;;;2.38;;
79027;SDS011;68427;48.476;19.102;2023-06-10T03:30:25;5.70;;;2.40;;
79027;SDS011;68427;48.476;19.102;2023-06-10T03:32:50;5.65;;;3.35;;
79027;SDS011;68427;48.476;19.102;2023-06-10T03:35:16;4.65;;;2.45;;
79027;SDS011;68427;48.476;19.102;2023-06-10T03:37:44;8.70;;;3.13;;
79027;SDS011;68427;48.476;19.102;2023-06-10T03:40:09;5.30;;;2.67;;
79027;SDS011;68427;48.476;19.102;2023-06-10T03:42:36;6.15;;;2.30;;
79027;SDS011;68427;48.476;19.102;2023-06-10T03:45:02;5.28;;;1.83;;
79027;SDS011;68427;48.476;19.102;2023-06-10T03:47:32;5.72;;;2.10;;
79027;SDS011;68427;48.476;19.102;2023-06-10T03:49:58;6.28;;;2.15;;
79027;SDS011;68427;48.476;19.102;2023-06-10T03:52:24;5.35;;;2.03;;
79027;SDS011;68427;48.476;19.102;2023-06-10T03:54:51;5.45;;;2.03;;
79027;SDS011;68427;48.476;19.102;2023-06-10T03:57:17;3.45;;;2.17;;
79027;SDS011;68427;48.476;19.102;2023-06-10T03:59:42;6.97;;;2.30;;
79027;SDS011;68427;48.476;19.102;2023-06-10T04:02:08;4.85;;;2.55;;
79027;SDS011;68427;48.476;19.102;2023-06-10T04:04:34;5.78;;;2.63;;
79027;SDS011;68427;48.476;19.102;2023-06-10T04:07:00;4.88;;;1.75;;
79027;SDS011;68427;48.476;19.102;2023-06-10T04:09:25;4.70;;;2.47;;
79027;SDS011;68427;48.476;19.102;2023-06-10T04:11:52;4.50;;;2.03;;
79027;SDS011;68427;48.476;19.102;2023-06-10T04:14:18;5.15;;;1.65;;
79027;SDS011;68427;48.476;19.102;2023-06-10T04:16:44;4.55;;;1.80;;
79027;SDS011;68427;48.476;19.102;2023-06-10T04:19:09;3.80;;;1.73;;
79027;SDS011;68427;48.476;19.102;2023-06-10T04:21:35;3.45;;;1.90;;
79027;SDS011;68427;48.476;19.102;2023-06-10T04:24:01;6.15;;;2.03;;
79027;SDS011;68427;48.476;19.102;2023-06-10T04:26:28;5.13;;;1.85;;
79027;SDS011;68427;48.476;19.102;2023-06-10T04:28:55;4.38;;;2.90;;
79027;SDS011;68427;48.476;19.102;2023-06-10T04:31:20;3.97;;;2.25;;
79027;SDS011;68427;48.476;19.102;2023-06-10T04:33:46;5.05;;;1.98;;
79027;SDS011;68427;48.476;19.102;2023-06-10T04:36:11;4.22;;;1.77;;
79027;SDS011;68427;48.476;19.102;2023-06-10T04:38:37;3.65;;;1.73;;
79027;SDS011;68427;48.476;19.102;2023-06-10T04:41:03;4.97;;;2.40;;
79027;SDS011;68427;48.476;19.102;2023-06-10T04:43:29;4.35;;;1.80;;
79027;SDS011;68427;48.476;19.102;2023-06-10T04:45:57;4.30;;;1.42;;
79027;SDS011;68427;48.476;19.102;2023-06-10T04:48:22;3.38;;;1.60;;
79027;SDS011;68427;48.476;19.102;2023-06-10T04:50:49;3.80;;;2.00;;
79027;SDS011;68427;48.476;19.102;2023-06-10T04:53:15;5.28;;;2.17;;
79027;SDS011;68427;48.476;19.102;2023-06-10T04:55:41;3.70;;;2.13;;
79027;SDS011;68427;48.476;19.102;2023-06-10T04:58:07;4.90;;;1.85;;
79027;SDS011;68427;48.476;19.102;2023-06-10T05:00:33;3.53;;;1.70;;
79027;SDS011;68427;48.476;19.102;2023-06-10T05:03:00;4.93;;;1.98;;
79027;SDS011;68427;48.476;19.102;2023-06-10T05:05:26;4.55;;;2.78;;
79027;SDS011;68427;48.476;19.102;2023-06-10T05:07:51;5.55;;;4.22;;
79027;SDS011;68427;48.476;19.102;2023-06-10T05:10:17;4.70;;;2.25;;
79027;SDS011;68427;48.476;19.102;2023-06-10T05:12:43;4.85;;;1.67;;
79027;SDS011;68427;48.476;19.102;2023-06-10T05:15:09;3.88;;;1.90;;
79027;SDS011;68427;48.476;19.102;2023-06-10T05:17:35;3.60;;;1.25;;
79027;SDS011;68427;48.476;19.102;2023-06-10T05:20:03;3.72;;;1.77;;
79027;SDS011;68427;48.476;19.102;2023-06-10T05:24:54;5.57;;;2.67;;
79027;SDS011;68427;48.476;19.102;2023-06-10T05:27:20;5.72;;;2.83;;
79027;SDS011;68427;48.476;19.102;2023-06-10T05:29:47;6.60;;;3.65;;
79027;SDS011;68427;48.476;19.102;2023-06-10T05:32:12;8.07;;;4.28;;
79027;SDS011;68427;48.476;19.102;2023-06-10T05:34:38;5.55;;;3.10;;
79027;SDS011;68427;48.476;19.102;2023-06-10T05:37:06;5.88;;;3.17;;
79027;SDS011;68427;48.476;19.102;2023-06-10T05:41:57;6.32;;;3.38;;
79027;SDS011;68427;48.476;19.102;2023-06-10T05:44:24;5.13;;;2.60;;
79027;SDS011;68427;48.476;19.102;2023-06-10T05:46:50;4.60;;;3.08;;
79027;SDS011;68427;48.476;19.102;2023-06-10T05:49:16;7.13;;;3.53;;
79027;SDS011;68427;48.476;19.102;2023-06-10T05:51:42;4.22;;;2.47;;
79027;SDS011;68427;48.476;19.102;2023-06-10T05:54:09;4.88;;;2.38;;
79027;SDS011;68427;48.476;19.102;2023-06-10T05:56:34;5.47;;;2.72;;
79027;SDS011;68427;48.476;19.102;2023-06-10T05:59:00;4.40;;;2.45;;
79027;SDS011;68427;48.476;19.102;2023-06-10T06:01:26;4.70;;;3.17;;
79027;SDS011;68427;48.476;19.102;2023-06-10T06:03:51;4.55;;;3.08;;
79027;SDS011;68427;48.476;19.102;2023-06-10T06:06:17;4.47;;;3.17;;
79027;SDS011;68427;48.476;19.102;2023-06-10T06:08:45;5.68;;;3.28;;
79027;SDS011;68427;48.476;19.102;2023-06-10T06:11:12;5.43;;;2.83;;
